createdAt,value
2018-06-04T00:01:35.901Z,18.26
2018-06-04T00:04:08.583Z,18.11
2018-06-04T00:06:39.178Z,17.96
2018-06-04T00:09:10.735Z,17.94
2018-06-04T00:11:42.236Z,17.97
2018-06-04T00:14:13.609Z,18.00
2018-06-04T00:16:45.334Z,18.03
2018-06-04T00:19:17.861Z,18.00
2018-06-04T00:21:53.666Z,17.92
2018-06-04T00:24:25.356Z,17.83
2018-06-04T00:26:56.266Z,17.75
2018-06-04T00:29:27.197Z,17.66
2018-06-04T00:31:59.815Z,17.64
2018-06-04T00:34:32.092Z,17.55
2018-06-04T00:37:07.137Z,17.54
2018-06-04T00:39:39.604Z,17.57
2018-06-04T00:42:11.135Z,17.58
2018-06-04T00:44:42.279Z,17.51
2018-06-04T00:47:14.856Z,17.42
2018-06-04T00:49:47.493Z,17.31
2018-06-04T00:52:19.031Z,17.35
2018-06-04T00:54:50.759Z,17.47
2018-06-04T00:57:22.078Z,17.44
2018-06-04T00:59:53.491Z,17.44
2018-06-04T01:02:25.069Z,17.41
2018-06-04T01:04:57.234Z,17.40
2018-06-04T01:07:29.251Z,17.23
2018-06-04T01:10:00.997Z,17.12
2018-06-04T01:12:32.368Z,16.87
2018-06-04T01:15:04.340Z,16.86
2018-06-04T01:17:38.774Z,16.83
2018-06-04T01:20:10.883Z,16.81
2018-06-04T01:22:42.305Z,16.76
2018-06-04T01:25:12.948Z,16.77
2018-06-04T01:27:44.454Z,16.79
2018-06-04T01:30:15.776Z,16.79
2018-06-04T01:32:48.352Z,16.71
2018-06-04T01:35:22.332Z,16.66
2018-06-04T01:37:54.370Z,16.63
2018-06-04T01:40:25.646Z,16.61
2018-06-04T01:42:57.007Z,16.61
2018-06-04T01:45:28.781Z,16.62
2018-06-04T01:48:00.186Z,16.60
2018-06-04T01:50:32.762Z,16.63
2018-06-04T01:53:03.846Z,16.62
2018-06-04T01:55:35.470Z,16.68
2018-06-04T01:58:07.690Z,16.67
2018-06-04T02:00:41.021Z,16.56
2018-06-04T02:03:13.294Z,16.53
2018-06-04T02:05:46.170Z,16.54
2018-06-04T02:08:17.563Z,16.55
2018-06-04T02:10:49.675Z,16.66
2018-06-04T02:13:21.006Z,16.71
2018-06-04T02:15:52.690Z,16.75
2018-06-04T02:18:24.147Z,16.68
2018-06-04T02:20:56.912Z,16.71
2018-06-04T02:23:29.193Z,16.68
2018-06-04T02:26:01.440Z,16.67
2018-06-04T02:28:32.589Z,16.56
2018-06-04T02:31:04.010Z,16.54
2018-06-04T02:33:35.501Z,16.37
2018-06-04T02:36:07.714Z,16.22
2018-06-04T02:38:40.755Z,16.05
2018-06-04T02:41:12.007Z,16.04
2018-06-04T02:43:44.217Z,16.13
2018-06-04T02:46:14.760Z,16.13
2018-06-04T02:48:45.287Z,16.22
2018-06-04T02:51:16.436Z,16.23
2018-06-04T02:53:48.056Z,16.25
2018-06-04T02:56:19.805Z,16.16
2018-06-04T02:58:50.665Z,16.06
2018-06-04T03:01:21.880Z,16.01
2018-06-04T03:03:54.210Z,15.97
2018-06-04T03:06:24.879Z,15.95
2018-06-04T03:08:56.272Z,15.96
2018-06-04T03:11:27.940Z,15.88
2018-06-04T03:13:59.877Z,15.81
2018-06-04T03:16:31.156Z,15.70
2018-06-04T03:19:01.449Z,15.68
2018-06-04T03:21:32.682Z,15.57
2018-06-04T03:24:04.155Z,15.47
2018-06-04T03:26:35.503Z,15.47
2018-06-04T03:29:07.484Z,15.54
2018-06-04T03:31:39.225Z,15.58
2018-06-04T03:34:10.103Z,15.53
2018-06-04T03:36:41.259Z,15.40
2018-06-04T03:39:12.401Z,15.38
2018-06-04T03:41:43.402Z,15.55
2018-06-04T03:44:14.508Z,15.59
2018-06-04T03:46:46.028Z,15.70
2018-06-04T03:49:17.471Z,15.81
2018-06-04T03:51:48.660Z,15.97
2018-06-04T03:54:19.563Z,16.17
2018-06-04T03:56:50.657Z,16.25
2018-06-04T03:59:21.804Z,16.19
2018-06-04T04:01:53.065Z,16.20
2018-06-04T04:04:26.547Z,16.23
2018-06-04T04:06:58.349Z,16.12
2018-06-04T04:09:29.721Z,16.17
2018-06-04T04:12:00.955Z,16.19
2018-06-04T04:14:32.305Z,16.32
2018-06-04T04:17:04.404Z,16.40
2018-06-04T04:19:35.515Z,16.50
2018-06-04T04:22:07.731Z,16.62
2018-06-04T04:24:38.982Z,16.76
2018-06-04T04:27:10.379Z,16.81
2018-06-04T04:29:41.468Z,17.01
2018-06-04T04:32:12.567Z,16.93
2018-06-04T04:34:43.991Z,16.94
2018-06-04T04:37:15.158Z,16.98
2018-06-04T04:39:47.287Z,17.06
2018-06-04T04:42:19.169Z,17.18
2018-06-04T04:44:50.812Z,17.21
2018-06-04T04:47:21.896Z,17.28
2018-06-04T04:49:53.023Z,17.33
2018-06-04T04:52:24.125Z,17.37
2018-06-04T04:54:55.490Z,17.45
2018-06-04T04:57:27.809Z,17.55
2018-06-04T04:59:59.069Z,17.65
2018-06-04T05:02:30.098Z,17.77
2018-06-04T05:05:01.190Z,17.92
2018-06-04T05:07:33.572Z,18.08
2018-06-04T05:10:04.879Z,18.25
2018-06-04T05:12:37.645Z,18.41
2018-06-04T05:15:09.923Z,18.49
2018-06-04T05:17:41.109Z,18.56
2018-06-04T05:20:12.710Z,18.71
2018-06-04T05:22:44.009Z,18.87
2018-06-04T05:25:15.573Z,18.73
2018-06-04T05:27:46.480Z,18.99
2018-06-04T05:30:18.421Z,19.18
2018-06-04T05:32:49.947Z,19.40
2018-06-04T05:35:21.385Z,19.60
2018-06-04T05:37:52.399Z,19.80
2018-06-04T05:40:23.591Z,20.01
2018-06-04T05:42:54.777Z,20.17
2018-06-04T05:45:25.858Z,20.41
2018-06-04T05:47:58.434Z,20.63
2018-06-04T05:50:29.880Z,20.82
2018-06-04T05:53:00.285Z,21.00
2018-06-04T05:55:31.634Z,21.18
2018-06-04T05:58:02.831Z,21.47
2018-06-04T06:00:34.100Z,21.74
2018-06-04T06:03:05.326Z,21.78
2018-06-04T06:05:36.783Z,21.79
2018-06-04T06:08:09.837Z,21.95
2018-06-04T06:10:40.963Z,22.08
2018-06-04T06:13:12.060Z,22.53
2018-06-04T06:15:43.152Z,23.30
2018-06-04T06:18:13.622Z,24.10
2018-06-04T06:20:45.340Z,24.68
2018-06-04T06:23:17.801Z,25.00
2018-06-04T06:25:49.166Z,25.55
2018-06-04T06:28:22.123Z,26.01
2018-06-04T06:30:53.293Z,26.51
2018-06-04T06:33:25.211Z,26.91
2018-06-04T06:35:56.615Z,27.36
2018-06-04T06:38:28.733Z,27.53
2018-06-04T06:41:00.623Z,27.34
2018-06-04T06:43:31.767Z,27.29
2018-06-04T06:46:02.323Z,27.34
2018-06-04T06:48:32.804Z,26.73
2018-06-04T06:51:04.299Z,26.85
2018-06-04T06:53:35.825Z,26.34
2018-06-04T06:56:07.336Z,26.16
2018-06-04T06:58:40.000Z,25.70
2018-06-04T07:01:12.210Z,24.91
2018-06-04T07:03:43.343Z,25.68
2018-06-04T07:06:14.569Z,26.20
2018-06-04T07:08:45.690Z,26.80
2018-06-04T07:11:17.511Z,26.58
2018-06-04T07:13:49.619Z,27.16
2018-06-04T07:16:20.389Z,27.45
2018-06-04T07:18:51.547Z,27.60
2018-06-04T07:21:22.733Z,27.14
2018-06-04T07:23:54.115Z,27.60
2018-06-04T07:26:25.907Z,27.33
2018-06-04T07:28:57.862Z,26.77
2018-06-04T07:31:30.283Z,26.86
2018-06-04T07:34:01.515Z,26.88
2018-06-04T07:36:32.805Z,26.70
2018-06-04T07:39:04.768Z,26.23
2018-06-04T07:41:35.928Z,25.96
2018-06-04T07:44:07.881Z,26.04
2018-06-04T07:46:39.500Z,26.47
2018-06-04T07:49:11.267Z,26.40
2018-06-04T07:51:42.385Z,26.12
2018-06-04T07:54:13.552Z,25.96
2018-06-04T07:56:45.930Z,25.57
2018-06-04T07:59:17.473Z,24.26
2018-06-04T08:01:49.530Z,24.12
2018-06-04T08:04:22.162Z,23.75
2018-06-04T08:06:53.602Z,23.27
2018-06-04T08:09:24.931Z,23.56
2018-06-04T08:11:56.391Z,23.69
2018-06-04T08:14:28.042Z,24.11
2018-06-04T08:17:02.387Z,24.27
2018-06-04T08:19:33.668Z,24.38
2018-06-04T08:22:05.991Z,24.40
2018-06-04T08:24:37.838Z,25.53
2018-06-04T08:27:11.108Z,26.06
2018-06-04T08:29:43.186Z,27.12
2018-06-04T08:32:15.544Z,27.88
2018-06-04T08:34:46.971Z,28.56
2018-06-04T08:37:19.303Z,29.17
2018-06-04T08:39:50.814Z,29.74
2018-06-04T08:42:22.436Z,30.67
2018-06-04T08:44:54.044Z,31.15
2018-06-04T08:47:25.441Z,31.85
2018-06-04T08:49:56.831Z,32.71
2018-06-04T08:52:28.196Z,32.61
2018-06-04T08:55:01.811Z,32.34
2018-06-04T08:57:33.861Z,33.24
2018-06-04T09:00:05.135Z,33.76
2018-06-04T09:02:36.366Z,33.89
2018-06-04T09:05:08.045Z,33.83
2018-06-04T09:07:40.204Z,34.31
2018-06-04T09:10:12.601Z,32.70
2018-06-04T09:12:43.769Z,31.44
2018-06-04T09:15:15.087Z,31.13
2018-06-04T09:17:46.074Z,29.63
2018-06-04T09:20:18.087Z,29.00
2018-06-04T09:22:49.081Z,28.87
2018-06-04T09:25:20.108Z,29.42
2018-06-04T09:27:52.549Z,30.59
2018-06-04T09:30:23.918Z,31.06
2018-06-04T09:32:55.391Z,31.11
2018-06-04T09:35:27.241Z,30.98
2018-06-04T09:37:59.138Z,30.19
2018-06-04T09:40:30.138Z,30.67
2018-06-04T09:43:01.222Z,30.65
2018-06-04T09:45:33.281Z,31.33
2018-06-04T09:48:05.352Z,31.69
2018-06-04T09:50:36.917Z,30.58
2018-06-04T09:53:08.179Z,31.63
2018-06-04T09:55:39.308Z,29.85
2018-06-04T09:58:11.004Z,30.37
2018-06-04T10:00:42.714Z,31.40
2018-06-04T10:03:15.056Z,30.62
2018-06-04T10:05:46.756Z,30.54
2018-06-04T10:08:18.005Z,30.26
2018-06-04T10:10:49.282Z,30.86
2018-06-04T10:13:20.241Z,28.82
2018-06-04T10:15:50.694Z,30.22
2018-06-04T10:18:22.892Z,29.47
2018-06-04T10:20:54.832Z,27.98
2018-06-04T10:23:25.499Z,29.20
2018-06-04T10:25:57.124Z,30.78
2018-06-04T10:28:27.898Z,31.05
2018-06-04T10:30:58.802Z,31.48
2018-06-04T10:33:29.628Z,31.73
2018-06-04T10:36:00.304Z,30.76
2018-06-04T10:38:31.913Z,30.06
2018-06-04T10:41:04.377Z,29.44
2018-06-04T10:43:35.224Z,29.94
2018-06-04T10:46:06.376Z,30.25
2018-06-04T10:48:37.255Z,31.08
2018-06-04T10:51:08.390Z,30.26
2018-06-04T10:53:39.276Z,30.91
2018-06-04T10:56:10.601Z,31.00
2018-06-04T10:58:42.156Z,30.12
2018-06-04T11:01:13.386Z,28.71
2018-06-04T11:03:44.118Z,29.02
2018-06-04T11:06:16.849Z,28.89
2018-06-04T11:08:48.763Z,27.96
2018-06-04T11:11:19.196Z,28.29
2018-06-04T11:13:50.717Z,28.44
2018-06-04T11:16:23.192Z,28.74
2018-06-04T11:18:54.398Z,28.13
2018-06-04T11:21:25.338Z,28.71
2018-06-04T11:23:56.186Z,28.55
2018-06-04T11:26:27.098Z,28.23
2018-06-04T11:28:58.370Z,28.24
2018-06-04T11:31:28.566Z,29.17
2018-06-04T11:34:01.140Z,29.46
2018-06-04T11:36:33.936Z,28.44
2018-06-04T11:39:07.289Z,27.57
2018-06-04T11:41:38.834Z,28.21
2018-06-04T11:44:10.427Z,29.18
2018-06-04T11:46:42.371Z,29.28
2018-06-04T11:49:14.942Z,28.49
2018-06-04T11:51:46.732Z,28.49
2018-06-04T11:54:18.278Z,28.51
2018-06-04T11:56:50.338Z,28.60
2018-06-04T11:59:21.581Z,28.46
2018-06-04T12:01:54.580Z,29.90
2018-06-04T12:04:29.358Z,29.01
2018-06-04T12:07:01.089Z,28.45
2018-06-04T12:09:32.825Z,29.18
2018-06-04T12:12:05.366Z,29.06
2018-06-04T12:14:36.148Z,28.93
2018-06-04T12:17:06.891Z,30.13
2018-06-04T12:19:38.536Z,30.38
2018-06-04T12:22:10.776Z,30.83
2018-06-04T12:24:42.070Z,30.63
2018-06-04T12:27:15.223Z,30.92
2018-06-04T12:29:46.391Z,31.54
2018-06-04T12:32:19.337Z,31.68
2018-06-04T12:34:50.837Z,29.53
2018-06-04T12:37:23.228Z,28.93
2018-06-04T12:39:54.445Z,29.82
2018-06-04T12:42:26.292Z,28.97
2018-06-04T12:44:59.683Z,28.57
2018-06-04T12:47:31.097Z,30.59
2018-06-04T12:50:03.091Z,29.81
2018-06-04T12:52:35.109Z,29.21
2018-06-04T12:55:07.439Z,29.52
2018-06-04T12:57:39.022Z,28.45
2018-06-04T13:00:11.960Z,28.87
2018-06-04T13:02:44.956Z,29.32
2018-06-04T13:05:24.256Z,28.52
2018-06-04T13:07:56.600Z,28.40
2018-06-04T13:10:27.940Z,27.95
2018-06-04T13:12:59.788Z,29.25
2018-06-04T13:15:32.178Z,29.96
2018-06-04T13:18:04.470Z,30.07
2018-06-04T13:20:35.929Z,29.65
2018-06-04T13:23:08.627Z,29.12
2018-06-04T13:25:39.919Z,29.28
2018-06-04T13:28:11.584Z,28.82
2018-06-04T13:30:43.125Z,29.06
2018-06-04T13:33:14.431Z,29.23
2018-06-04T13:35:46.197Z,29.20
2018-06-04T13:38:19.413Z,28.93
2018-06-04T13:40:51.435Z,29.29
2018-06-04T13:43:23.800Z,28.46
2018-06-04T13:45:55.146Z,28.28
2018-06-04T13:48:27.369Z,28.13
2018-06-04T13:50:58.831Z,28.46
2018-06-04T13:53:30.201Z,27.93
2018-06-04T13:56:03.580Z,27.71
2018-06-04T13:58:34.488Z,27.74
2018-06-04T14:01:07.742Z,28.37
2018-06-04T14:03:40.439Z,28.56
2018-06-04T14:06:19.679Z,28.25
2018-06-04T14:08:52.441Z,28.10
2018-06-04T14:11:25.807Z,28.11
2018-06-04T14:14:00.107Z,28.02
2018-06-04T14:16:33.294Z,27.68
2018-06-04T14:19:08.894Z,27.77
2018-06-04T14:21:42.550Z,27.17
2018-06-04T14:24:15.405Z,27.53
2018-06-04T14:26:49.189Z,27.23
2018-06-04T14:29:21.921Z,27.13
2018-06-04T14:31:53.319Z,27.41
2018-06-04T14:34:27.354Z,27.18
2018-06-04T14:36:58.730Z,27.14
2018-06-04T14:39:30.618Z,27.21
2018-06-04T14:42:02.151Z,26.97
2018-06-04T14:44:33.251Z,26.96
2018-06-04T14:47:04.243Z,26.89
2018-06-04T14:49:35.154Z,27.28
2018-06-04T14:52:07.740Z,27.13
2018-06-04T14:54:39.148Z,27.25
2018-06-04T14:57:11.232Z,26.77
2018-06-04T14:59:42.696Z,27.12
2018-06-04T15:02:14.777Z,27.44
2018-06-04T15:04:45.840Z,27.15
2018-06-04T15:07:18.549Z,27.36
2018-06-04T15:09:51.010Z,26.97
2018-06-04T15:12:22.506Z,27.08
2018-06-04T15:14:53.671Z,26.82
2018-06-04T15:17:25.388Z,27.19
2018-06-04T15:19:56.728Z,26.58
2018-06-04T15:22:27.994Z,26.36
2018-06-04T15:25:00.049Z,26.60
2018-06-04T15:27:32.107Z,26.19
2018-06-04T15:30:03.869Z,26.29
2018-06-04T15:32:35.367Z,26.20
2018-06-04T15:35:08.328Z,25.85
2018-06-04T15:37:39.595Z,25.58
2018-06-04T15:40:13.039Z,25.66
2018-06-04T15:42:45.205Z,25.74
2018-06-04T15:45:15.856Z,25.62
2018-06-04T15:47:47.192Z,25.37
2018-06-04T15:50:18.807Z,25.60
2018-06-04T15:52:50.769Z,25.64
2018-06-04T15:55:22.330Z,25.21
2018-06-04T15:57:54.553Z,24.87
2018-06-04T16:00:26.286Z,24.96
2018-06-04T16:02:57.694Z,24.91
2018-06-04T16:05:29.493Z,24.47
2018-06-04T16:08:00.566Z,24.52
2018-06-04T16:10:31.827Z,24.43
2018-06-04T16:13:02.813Z,24.21
2018-06-04T16:15:35.331Z,24.12
2018-06-04T16:18:07.095Z,24.24
2018-06-04T16:20:38.784Z,24.34
2018-06-04T16:23:09.964Z,24.03
2018-06-04T16:25:43.220Z,24.24
2018-06-04T16:28:14.858Z,24.13
2018-06-04T16:30:46.665Z,23.77
2018-06-04T16:33:19.742Z,23.78
2018-06-04T16:35:50.969Z,23.67
2018-06-04T16:38:22.391Z,23.80
2018-06-04T16:40:54.427Z,23.81
2018-06-04T16:43:26.258Z,23.86
2018-06-04T16:45:57.724Z,24.40
2018-06-04T16:48:30.421Z,24.33
2018-06-04T16:51:02.316Z,24.39
2018-06-04T16:53:33.853Z,24.17
2018-06-04T16:56:05.132Z,24.15
2018-06-04T16:58:36.681Z,23.92
2018-06-04T17:01:08.563Z,23.97
2018-06-04T17:03:40.840Z,23.99
2018-06-04T17:06:13.048Z,23.91
2018-06-04T17:08:46.080Z,23.88
2018-06-04T17:11:17.507Z,23.87
2018-06-04T17:13:50.551Z,23.96
2018-06-04T17:16:21.785Z,24.08
2018-06-04T17:18:58.520Z,24.19
2018-06-04T17:21:30.720Z,23.96
2018-06-04T17:24:02.065Z,23.88
2018-06-04T17:26:33.498Z,23.96
2018-06-04T17:29:05.963Z,24.10
2018-06-04T17:31:36.828Z,24.22
2018-06-04T17:34:08.527Z,24.24
2018-06-04T17:36:40.975Z,24.23
2018-06-04T17:39:11.579Z,24.12
2018-06-04T17:41:44.702Z,24.09
2018-06-04T17:44:16.945Z,24.00
2018-06-04T17:46:49.687Z,23.92
2018-06-04T17:49:21.281Z,23.85
2018-06-04T17:51:53.612Z,23.84
2018-06-04T17:54:25.108Z,23.77
2018-06-04T17:56:57.757Z,23.75
2018-06-04T17:59:30.757Z,23.60
2018-06-04T18:02:03.210Z,23.55
2018-06-04T18:04:37.269Z,23.44
2018-06-04T18:07:11.405Z,23.28
2018-06-04T18:09:43.723Z,23.21
2018-06-04T18:12:15.596Z,23.02
2018-06-04T18:14:47.179Z,22.88
2018-06-04T18:17:19.051Z,22.79
2018-06-04T18:19:50.605Z,22.67
2018-06-04T18:22:23.489Z,22.60
2018-06-04T18:24:54.095Z,22.49
2018-06-04T18:27:26.146Z,22.45
2018-06-04T18:29:58.110Z,22.36
2018-06-04T18:32:29.297Z,22.24
2018-06-04T18:35:00.608Z,22.09
2018-06-04T18:37:32.495Z,22.05
2018-06-04T18:40:05.286Z,22.04
2018-06-04T18:42:36.701Z,22.01
2018-06-04T18:45:08.579Z,21.97
2018-06-04T18:47:40.645Z,21.87
2018-06-04T18:50:11.849Z,21.82
2018-06-04T18:52:44.092Z,21.77
2018-06-04T18:55:17.819Z,21.72
2018-06-04T18:57:49.364Z,21.56
2018-06-04T19:00:20.943Z,21.47
2018-06-04T19:02:54.149Z,21.39
2018-06-04T19:05:25.285Z,21.33
2018-06-04T19:07:57.034Z,21.26
2018-06-04T19:10:29.774Z,21.23
2018-06-04T19:13:02.651Z,21.16
2018-06-04T19:15:34.463Z,21.00
2018-06-04T19:18:06.813Z,20.88
2018-06-04T19:20:38.927Z,20.78
2018-06-04T19:23:11.722Z,20.66
2018-06-04T19:25:44.119Z,20.47
2018-06-04T19:28:16.275Z,20.39
2018-06-04T19:30:48.577Z,20.33
2018-06-04T19:33:20.115Z,20.31
2018-06-04T19:35:52.936Z,20.28
2018-06-04T19:38:25.316Z,20.18
2018-06-04T19:40:58.148Z,20.17
2018-06-04T19:43:30.496Z,20.13
2018-06-04T19:46:04.815Z,20.05
2018-06-04T19:48:44.866Z,19.95
2018-06-04T19:51:16.649Z,19.85
2018-06-04T19:53:52.659Z,19.71
2018-06-04T19:56:25.761Z,19.52
2018-06-04T19:58:59.633Z,19.45
2018-06-04T20:01:31.436Z,19.42
2018-06-04T20:04:05.666Z,19.31
2018-06-04T20:06:42.300Z,19.18
2018-06-04T20:09:17.621Z,19.22
2018-06-04T20:11:50.606Z,19.15
2018-06-04T20:14:23.462Z,19.13
2018-06-04T20:16:57.875Z,19.06
2018-06-04T20:19:30.478Z,19.05
2018-06-04T20:22:02.851Z,19.07
2018-06-04T20:24:35.247Z,19.05
2018-06-04T20:27:07.153Z,18.97
2018-06-04T20:29:39.503Z,18.83
2018-06-04T20:32:13.473Z,18.71
2018-06-04T20:34:47.016Z,18.62
2018-06-04T20:37:18.533Z,18.55
2018-06-04T20:39:50.446Z,18.55
2018-06-04T20:42:21.762Z,18.55
2018-06-04T20:44:53.450Z,18.50
2018-06-04T20:47:26.038Z,18.48
2018-06-04T20:49:57.862Z,18.43
2018-06-04T20:52:29.522Z,18.37
2018-06-04T20:55:00.950Z,18.29
2018-06-04T20:57:32.156Z,18.23
2018-06-04T21:00:03.748Z,18.19
2018-06-04T21:02:36.530Z,18.16
2018-06-04T21:05:08.665Z,18.17
2018-06-04T21:07:39.734Z,18.16
2018-06-04T21:10:11.190Z,18.17
2018-06-04T21:12:42.619Z,18.23
2018-06-04T21:15:13.918Z,18.22
2018-06-04T21:17:45.136Z,18.17
2018-06-04T21:20:17.150Z,18.20
2018-06-04T21:22:48.922Z,18.15
2018-06-04T21:25:19.869Z,18.13
2018-06-04T21:27:51.025Z,18.10
2018-06-04T21:30:22.931Z,18.07
2018-06-04T21:32:55.683Z,18.02
2018-06-04T21:35:27.199Z,18.06
2018-06-04T21:37:59.706Z,18.07
2018-06-04T21:40:31.208Z,17.95
2018-06-04T21:43:03.580Z,17.86
2018-06-04T21:45:34.873Z,17.84
2018-06-04T21:48:06.876Z,17.90
2018-06-04T21:50:37.914Z,17.90
2018-06-04T21:53:09.593Z,17.93
2018-06-04T21:55:41.819Z,17.97
2018-06-04T21:58:13.841Z,17.97
2018-06-04T22:00:45.919Z,17.94
2018-06-04T22:03:17.484Z,17.87
2018-06-04T22:05:49.017Z,17.75
2018-06-04T22:08:21.025Z,17.64
2018-06-04T22:10:53.516Z,17.54
2018-06-04T22:13:25.950Z,17.45
2018-06-04T22:15:57.838Z,17.37
2018-06-04T22:18:29.225Z,17.31
2018-06-04T22:21:00.603Z,17.24
2018-06-04T22:23:32.119Z,17.24
2018-06-04T22:26:04.718Z,17.29
2018-06-04T22:28:36.233Z,17.35
2018-06-04T22:31:07.778Z,17.40
2018-06-04T22:33:39.212Z,17.44
2018-06-04T22:36:10.605Z,17.46
2018-06-04T22:38:42.797Z,17.47
2018-06-04T22:41:14.602Z,17.45
2018-06-04T22:43:46.544Z,17.42
2018-06-04T22:46:18.287Z,17.41
2018-06-04T22:48:49.378Z,17.31
2018-06-04T22:51:20.588Z,17.16
2018-06-04T22:53:51.634Z,17.03
2018-06-04T22:56:22.814Z,16.96
2018-06-04T22:58:54.440Z,17.00
2018-06-04T23:01:26.911Z,17.04
2018-06-04T23:03:58.256Z,17.11
2018-06-04T23:06:29.405Z,17.16
2018-06-04T23:09:00.351Z,17.13
2018-06-04T23:11:31.482Z,17.12
2018-06-04T23:14:03.469Z,17.09
2018-06-04T23:16:36.368Z,17.10
2018-06-04T23:19:08.209Z,17.03
2018-06-04T23:21:39.423Z,16.98
2018-06-04T23:24:10.934Z,16.96
2018-06-04T23:26:42.523Z,16.95
2018-06-04T23:29:15.142Z,16.97
2018-06-04T23:31:47.661Z,16.93
2018-06-04T23:34:20.111Z,16.83
2018-06-04T23:36:51.121Z,16.77
2018-06-04T23:39:22.374Z,16.73
2018-06-04T23:41:53.787Z,16.64
2018-06-04T23:44:24.944Z,16.54
2018-06-04T23:46:56.212Z,16.50
2018-06-04T23:49:27.889Z,16.46
2018-06-04T23:52:00.098Z,16.45
2018-06-04T23:54:31.470Z,16.42
2018-06-04T23:57:02.396Z,16.41
2018-06-04T23:59:33.634Z,16.43
